Time;durP1;ratioP1;P1;durP2;ratioP2;P2;SDS_P1;SDS_P2;PMS_P1;PMS_P2;Temp;Humidity;BMP_temperature;BMP_pressure;BME280_temperature;BME280_humidity;BME280_pressure;Samples;Min_cycle;Max_cycle;Signal;HPM_P1;HPM_P2
2021/04/18 00:02:17;;;;;;;19.87;7.20;;;5.70;99.90;;;;;;5092120;28;20203;-77
2021/04/18 00:04:43;;;;;;;15.03;6.30;;;5.60;99.90;;;;;;5092531;28;20287;-77
2021/04/18 00:07:09;;;;;;;17.17;7.33;;;5.50;99.90;;;;;;5092591;28;20220;-77
2021/04/18 00:09:36;;;;;;;17.43;7.33;;;5.50;99.90;;;;;;5092447;28;20575;-76
2021/04/18 00:12:02;;;;;;;19.87;7.63;;;5.50;99.90;;;;;;5091922;28;20196;-75
2021/04/18 00:14:28;;;;;;;18.97;7.70;;;5.50;99.90;;;;;;5092417;28;20212;-76
2021/04/18 00:16:56;;;;;;;19.67;7.90;;;5.60;99.90;;;;;;5092498;28;20224;-77
2021/04/18 00:19:22;;;;;;;24.10;7.83;;;5.50;99.90;;;;;;5090521;28;20241;-77
2021/04/18 00:21:49;;;;;;;21.33;7.97;;;5.60;99.90;;;;;;5091847;28;20676;-76
2021/04/18 00:24:15;;;;;;;19.77;9.20;;;5.60;99.90;;;;;;5090028;28;20208;-77
2021/04/18 00:26:41;;;;;;;16.17;8.53;;;5.50;99.90;;;;;;5091955;28;20196;-77
2021/04/18 00:29:08;;;;;;;14.77;8.40;;;5.50;99.90;;;;;;5092152;28;20187;-75
2021/04/18 00:31:34;;;;;;;22.27;8.10;;;5.30;99.90;;;;;;5091784;28;20280;-76
2021/04/18 00:34:01;;;;;;;19.40;7.83;;;5.40;99.90;;;;;;5088304;28;20403;-77
2021/04/18 00:36:28;;;;;;;27.27;8.87;;;5.40;99.90;;;;;;5091670;28;20222;-76
2021/04/18 00:38:54;;;;;;;15.63;8.43;;;5.40;99.90;;;;;;5092085;28;20198;-75
2021/04/18 00:41:20;;;;;;;16.97;8.33;;;5.30;99.90;;;;;;5090130;28;20188;-77
2021/04/18 00:43:47;;;;;;;21.50;8.53;;;5.30;99.90;;;;;;5091911;28;20279;-78
2021/04/18 00:46:13;;;;;;;22.03;9.13;;;5.30;99.90;;;;;;5092153;28;20211;-76
2021/04/18 00:48:41;;;;;;;22.43;8.47;;;5.30;99.90;;;;;;5091635;28;20199;-79
2021/04/18 00:51:09;;;;;;;21.23;8.93;;;5.30;99.90;;;;;;5090998;28;20572;-79
2021/04/18 00:53:35;;;;;;;25.67;9.33;;;5.30;99.90;;;;;;5091738;28;20220;-76
2021/04/18 00:56:02;;;;;;;21.03;9.20;;;5.30;99.90;;;;;;5091876;28;20199;-78
2021/04/18 00:58:30;;;;;;;24.33;8.93;;;5.30;99.90;;;;;;5091874;28;20563;-76
2021/04/18 01:00:56;;;;;;;20.30;9.00;;;5.20;99.90;;;;;;5091817;28;20204;-76
2021/04/18 01:03:22;;;;;;;22.17;9.13;;;5.10;99.90;;;;;;5091795;28;20196;-76
2021/04/18 01:05:49;;;;;;;18.63;9.57;;;5.10;99.90;;;;;;5093074;28;20208;-79
2021/04/18 01:08:16;;;;;;;31.07;11.60;;;5.10;99.90;;;;;;5092217;28;20288;-79
2021/04/18 01:10:42;;;;;;;20.77;9.50;;;5.20;99.90;;;;;;5091779;28;20204;-78
2021/04/18 01:13:09;;;;;;;23.30;9.80;;;5.10;99.90;;;;;;5092120;28;20275;-77
2021/04/18 01:15:35;;;;;;;24.77;10.33;;;5.20;99.90;;;;;;5092542;28;20195;-78
2021/04/18 01:18:02;;;;;;;20.90;9.77;;;5.10;99.90;;;;;;5092449;28;20204;-78
2021/04/18 01:20:28;;;;;;;18.73;10.17;;;5.20;99.90;;;;;;5092256;28;20539;-76
2021/04/18 01:22:55;;;;;;;22.60;10.20;;;5.10;99.90;;;;;;5092704;28;20219;-76
2021/04/18 01:25:22;;;;;;;22.83;10.50;;;5.20;99.90;;;;;;5092334;28;20204;-77
2021/04/18 01:27:49;;;;;;;20.13;10.50;;;5.20;99.90;;;;;;5091993;28;20299;-77
2021/04/18 01:30:20;;;;;;;26.20;11.50;;;5.20;99.90;;;;;;5091975;28;20715;-78
2021/04/18 01:32:49;;;;;;;24.57;11.07;;;5.10;99.90;;;;;;5092030;28;20200;-77
2021/04/18 01:35:17;;;;;;;21.80;11.00;;;5.10;99.90;;;;;;5092150;28;20224;-77
2021/04/18 01:37:44;;;;;;;23.57;11.83;;;5.10;99.90;;;;;;5091953;28;20204;-79
2021/04/18 01:40:13;;;;;;;22.60;10.57;;;5.10;99.90;;;;;;5095325;28;20279;-79
2021/04/18 01:42:40;;;;;;;25.40;11.90;;;5.10;99.90;;;;;;5096518;28;20205;-79
2021/04/18 01:45:08;;;;;;;25.20;11.77;;;5.10;99.90;;;;;;5096267;28;20212;-78
2021/04/18 01:47:35;;;;;;;30.40;12.50;;;5.20;99.90;;;;;;5095966;28;20269;-76
2021/04/18 01:50:01;;;;;;;23.83;12.30;;;5.10;99.90;;;;;;5095232;28;20291;-76
2021/04/18 01:52:29;;;;;;;29.40;13.00;;;5.10;99.90;;;;;;5095338;28;20194;-76
2021/04/18 01:54:55;;;;;;;24.00;12.97;;;5.00;99.90;;;;;;5095618;28;20243;-80
2021/04/18 01:57:22;;;;;;;23.23;13.00;;;4.90;99.90;;;;;;5095688;28;20225;-79
2021/04/18 01:59:50;;;;;;;35.20;14.03;;;4.90;99.90;;;;;;5095054;28;20192;-76
2021/04/18 02:02:16;;;;;;;27.60;13.07;;;5.00;99.90;;;;;;5095047;28;20200;-76
2021/04/18 02:04:43;;;;;;;24.57;13.43;;;5.00;99.90;;;;;;5095296;28;20203;-77
2021/04/18 02:07:09;;;;;;;32.00;14.30;;;5.00;99.90;;;;;;5095124;28;20287;-79
2021/04/18 02:09:37;;;;;;;33.20;14.07;;;5.10;99.90;;;;;;5095187;28;20200;-77
2021/04/18 02:12:06;;;;;;;28.77;13.60;;;5.00;99.90;;;;;;5095117;28;20264;-76
2021/04/18 02:14:35;;;;;;;31.23;14.10;;;4.80;99.90;;;;;;5094918;28;20221;-76
2021/04/18 02:17:02;;;;;;;28.33;14.77;;;4.80;99.90;;;;;;5095151;28;20210;-78
2021/04/18 02:19:28;;;;;;;32.83;15.30;;;4.90;99.90;;;;;;5094592;28;20307;-77
2021/04/18 02:21:55;;;;;;;30.50;15.03;;;4.90;99.90;;;;;;5094675;28;20196;-77
2021/04/18 02:24:22;;;;;;;29.33;16.37;;;4.90;99.90;;;;;;5094596;28;20246;-76
2021/04/18 02:26:48;;;;;;;32.33;16.90;;;4.80;99.90;;;;;;5095072;28;20211;-79
2021/04/18 02:29:14;;;;;;;31.70;16.17;;;4.80;99.90;;;;;;5094978;28;20245;-78
2021/04/18 02:31:42;;;;;;;35.43;17.13;;;4.70;99.90;;;;;;5094892;28;20582;-77
2021/04/18 02:34:09;;;;;;;36.43;17.77;;;4.70;99.90;;;;;;5094091;28;20303;-76
2021/04/18 02:36:35;;;;;;;35.07;19.00;;;4.70;99.90;;;;;;5094309;28;20654;-76
2021/04/18 02:39:02;;;;;;;31.17;18.47;;;4.70;99.90;;;;;;5094969;28;20207;-76
2021/04/18 02:41:28;;;;;;;34.23;18.83;;;4.60;99.90;;;;;;5094468;28;20275;-76
2021/04/18 02:43:54;;;;;;;38.23;18.50;;;4.60;99.90;;;;;;5094478;28;20547;-76
2021/04/18 02:46:21;;;;;;;33.43;18.63;;;4.60;99.90;;;;;;5094457;28;20600;-76
2021/04/18 02:48:48;;;;;;;39.77;20.57;;;4.60;99.90;;;;;;5094661;28;20207;-76
2021/04/18 02:51:14;;;;;;;36.33;19.77;;;4.70;99.90;;;;;;5094045;28;20203;-76
2021/04/18 02:53:41;;;;;;;38.20;21.73;;;4.70;99.90;;;;;;5094347;28;20228;-78
2021/04/18 02:56:07;;;;;;;36.77;20.60;;;4.70;99.90;;;;;;5094048;28;20209;-77
2021/04/18 02:58:34;;;;;;;36.33;20.67;;;4.70;99.90;;;;;;5093985;28;20791;-79
2021/04/18 03:01:01;;;;;;;42.37;21.17;;;4.70;99.90;;;;;;5094040;28;20287;-80
2021/04/18 03:03:27;;;;;;;36.03;21.43;;;4.70;99.90;;;;;;5094384;28;20201;-76
2021/04/18 03:05:54;;;;;;;41.37;21.47;;;4.70;99.90;;;;;;5093887;28;20220;-79
2021/04/18 03:08:21;;;;;;;41.60;22.17;;;4.60;99.90;;;;;;5094515;28;20196;-76
2021/04/18 03:10:47;;;;;;;42.57;22.10;;;4.50;99.90;;;;;;5093667;28;20682;-77
2021/04/18 03:13:13;;;;;;;41.37;21.57;;;4.60;99.90;;;;;;5094273;28;20200;-78
2021/04/18 03:15:40;;;;;;;39.67;23.03;;;4.70;99.90;;;;;;5093546;28;20230;-76
2021/04/18 03:18:06;;;;;;;44.23;21.57;;;4.60;99.90;;;;;;5093451;28;20197;-78
2021/04/18 03:20:33;;;;;;;43.20;22.33;;;4.50;99.90;;;;;;5094142;28;20683;-76
2021/04/18 03:23:00;;;;;;;40.83;22.40;;;4.50;99.90;;;;;;5094299;28;20196;-76
2021/04/18 03:25:26;;;;;;;37.57;21.17;;;4.60;99.90;;;;;;5093811;28;20210;-76
2021/04/18 03:27:53;;;;;;;38.57;21.53;;;4.50;99.90;;;;;;5093394;28;20283;-77
2021/04/18 03:30:20;;;;;;;36.77;21.77;;;4.60;99.90;;;;;;5093349;28;20670;-76
2021/04/18 03:32:46;;;;;;;49.90;23.67;;;4.60;99.90;;;;;;5093723;28;20280;-76
2021/04/18 03:35:14;;;;;;;46.23;24.27;;;4.60;99.90;;;;;;5093758;28;20230;-77
2021/04/18 03:37:40;;;;;;;45.70;23.93;;;4.60;99.90;;;;;;5093349;28;20282;-79
2021/04/18 03:40:09;;;;;;;43.47;23.03;;;4.70;99.90;;;;;;5093244;28;20242;-76
2021/04/18 03:42:35;;;;;;;41.27;23.20;;;4.80;99.90;;;;;;5093293;28;20237;-77
2021/04/18 03:45:02;;;;;;;40.50;23.53;;;4.80;99.90;;;;;;5093705;28;20204;-76
2021/04/18 03:47:28;;;;;;;56.67;24.87;;;4.80;99.90;;;;;;5093083;28;20283;-76
2021/04/18 03:49:54;;;;;;;49.23;23.93;;;4.80;99.90;;;;;;5092950;28;20676;-75
2021/04/18 03:52:21;;;;;;;40.87;23.83;;;4.70;99.90;;;;;;5093113;28;20215;-77
2021/04/18 03:54:47;;;;;;;45.97;24.43;;;4.60;99.90;;;;;;5092896;28;20696;-78
2021/04/18 03:57:14;;;;;;;47.40;25.37;;;4.50;99.90;;;;;;5093098;28;20710;-77
2021/04/18 03:59:40;;;;;;;46.43;26.63;;;4.50;99.90;;;;;;5093127;28;20206;-75
2021/04/18 04:02:07;;;;;;;55.27;27.27;;;4.60;99.90;;;;;;5091056;28;20202;-77
2021/04/18 04:04:33;;;;;;;55.17;29.73;;;4.60;99.90;;;;;;5092989;28;20288;-79
2021/04/18 04:07:00;;;;;;;58.67;29.37;;;4.60;99.90;;;;;;5093322;28;20201;-76
2021/04/18 04:09:26;;;;;;;59.20;29.50;;;4.60;99.90;;;;;;5092721;28;20198;-77
2021/04/18 04:11:52;;;;;;;61.83;30.40;;;4.60;99.90;;;;;;5093101;28;20195;-77
2021/04/18 04:14:19;;;;;;;64.57;31.93;;;4.60;99.90;;;;;;5092463;28;20307;-77
2021/04/18 04:16:46;;;;;;;67.83;31.00;;;4.40;99.90;;;;;;5092676;28;20198;-76
2021/04/18 04:19:12;;;;;;;71.17;31.97;;;4.40;99.90;;;;;;5093332;28;20204;-77
2021/04/18 04:21:38;;;;;;;75.93;35.47;;;4.50;99.90;;;;;;5092442;28;20201;-77
2021/04/18 04:24:06;;;;;;;74.47;37.00;;;4.60;99.90;;;;;;5092302;28;20191;-76
2021/04/18 04:26:32;;;;;;;70.27;33.37;;;4.40;99.90;;;;;;5090083;28;20204;-78
2021/04/18 04:28:58;;;;;;;63.23;32.50;;;4.40;99.90;;;;;;5092533;28;20301;-78
2021/04/18 04:31:26;;;;;;;79.20;37.33;;;4.50;99.90;;;;;;5092211;28;20296;-76
2021/04/18 04:33:52;;;;;;;89.60;39.40;;;4.70;99.90;;;;;;5089054;28;20306;-78
2021/04/18 04:36:19;;;;;;;75.93;38.77;;;4.80;99.90;;;;;;5092102;28;20224;-76
2021/04/18 04:38:45;;;;;;;83.73;39.97;;;4.70;99.90;;;;;;5092601;28;20200;-76
2021/04/18 04:41:12;;;;;;;101.53;40.27;;;4.70;99.90;;;;;;5091762;28;20736;-79
2021/04/18 04:43:38;;;;;;;82.80;38.63;;;4.50;99.90;;;;;;5091794;28;20282;-77
2021/04/18 04:46:05;;;;;;;82.80;39.90;;;4.50;99.90;;;;;;5092250;28;20283;-77
2021/04/18 04:48:32;;;;;;;84.13;40.97;;;4.40;99.90;;;;;;5091937;28;20721;-76
2021/04/18 04:50:58;;;;;;;86.80;40.47;;;4.40;99.90;;;;;;5092272;28;20241;-76
2021/04/18 04:53:25;;;;;;;88.13;41.27;;;4.50;99.90;;;;;;5092089;28;20282;-76
2021/04/18 04:55:51;;;;;;;79.60;40.10;;;4.40;99.90;;;;;;5092055;28;20310;-77
2021/04/18 04:58:17;;;;;;;70.43;34.20;;;4.40;99.90;;;;;;5091638;28;20282;-79
2021/04/18 05:00:44;;;;;;;75.20;38.53;;;4.60;99.90;;;;;;5091676;28;20192;-78
2021/04/18 05:03:10;;;;;;;89.03;38.73;;;4.70;99.90;;;;;;5091396;28;20204;-76
2021/04/18 05:05:38;;;;;;;69.07;36.87;;;4.80;99.90;;;;;;5089681;28;20620;-76
2021/04/18 05:08:05;;;;;;;79.63;38.30;;;4.90;99.90;;;;;;5091343;28;20217;-77
2021/04/18 05:10:31;;;;;;;78.77;39.20;;;5.00;99.90;;;;;;5091844;28;20227;-76
2021/04/18 05:12:58;;;;;;;88.93;41.40;;;5.10;99.90;;;;;;5093418;28;20296;-76
2021/04/18 05:15:24;;;;;;;82.13;41.70;;;5.20;99.90;;;;;;5095543;28;20214;-77
2021/04/18 05:17:51;;;;;;;88.70;44.00;;;5.50;99.90;;;;;;5096941;28;20258;-77
2021/04/18 05:20:18;;;;;;;91.17;45.13;;;5.70;99.90;;;;;;5095563;28;20286;-76
2021/04/18 05:22:46;;;;;;;85.90;43.57;;;6.10;99.90;;;;;;5095614;28;20321;-76
2021/04/18 05:25:14;;;;;;;86.87;44.37;;;6.50;99.90;;;;;;5095553;28;20196;-79
2021/04/18 05:27:41;;;;;;;101.53;44.00;;;6.90;99.90;;;;;;5095758;28;20610;-79
2021/04/18 05:30:09;;;;;;;69.50;36.57;;;7.30;99.90;;;;;;5096013;28;20238;-80
2021/04/18 05:32:36;;;;;;;62.70;36.03;;;7.50;99.90;;;;;;5095659;28;20291;-76
2021/04/18 05:35:02;;;;;;;60.70;33.40;;;7.50;99.90;;;;;;5095048;28;20280;-76
2021/04/18 05:37:29;;;;;;;62.67;33.57;;;7.50;99.90;;;;;;5095631;28;20201;-76
2021/04/18 05:39:56;;;;;;;55.80;31.23;;;7.30;99.90;;;;;;5095454;28;20295;-76
2021/04/18 05:42:22;;;;;;;54.60;31.37;;;7.30;99.90;;;;;;5095882;28;20284;-76
2021/04/18 05:44:49;;;;;;;56.07;31.07;;;7.30;99.90;;;;;;5095400;28;20196;-75
2021/04/18 05:47:15;;;;;;;60.63;32.20;;;7.10;99.90;;;;;;5095276;28;20220;-76
2021/04/18 05:49:42;;;;;;;54.90;31.10;;;7.10;99.90;;;;;;5095215;28;20284;-77
2021/04/18 05:52:08;;;;;;;63.87;31.27;;;7.20;99.90;;;;;;5095212;28;20199;-75
2021/04/18 05:54:35;;;;;;;57.47;32.00;;;7.10;99.90;;;;;;5095219;28;20312;-77
2021/04/18 05:57:02;;;;;;;53.93;30.73;;;7.10;99.90;;;;;;5095795;28;20288;-78
2021/04/18 05:59:28;;;;;;;49.93;31.27;;;7.30;99.90;;;;;;5095278;28;20284;-75
2021/04/18 06:01:55;;;;;;;45.43;28.73;;;7.40;99.90;;;;;;5094872;28;20330;-76
2021/04/18 06:04:21;;;;;;;51.23;29.53;;;7.40;99.90;;;;;;5091357;28;20197;-76
2021/04/18 06:06:47;;;;;;;52.47;27.60;;;7.40;99.90;;;;;;5094067;28;20196;-76
2021/04/18 06:09:14;;;;;;;46.17;27.33;;;7.50;99.90;;;;;;5094705;28;20247;-76
2021/04/18 06:11:40;;;;;;;46.63;26.60;;;7.50;99.90;;;;;;5094540;28;20200;-76
2021/04/18 06:14:07;;;;;;;38.50;25.57;;;7.60;99.90;;;;;;5095068;28;20591;-78
2021/04/18 06:16:34;;;;;;;43.03;25.40;;;7.60;99.90;;;;;;5095103;28;20605;-78
2021/04/18 06:19:00;;;;;;;45.10;24.87;;;7.60;99.90;;;;;;5093347;28;20229;-78
2021/04/18 06:21:26;;;;;;;51.43;24.27;;;7.40;99.90;;;;;;5094447;28;20200;-76
2021/04/18 06:23:53;;;;;;;38.97;24.23;;;7.20;99.90;;;;;;5091425;28;20201;-78
2021/04/18 06:26:19;;;;;;;37.07;23.93;;;7.30;99.90;;;;;;5092287;28;20266;-76
2021/04/18 06:28:45;;;;;;;43.53;24.10;;;7.40;99.90;;;;;;5092629;28;20201;-75
2021/04/18 06:31:13;;;;;;;45.67;23.83;;;7.50;99.90;;;;;;5092751;28;20193;-76
2021/04/18 06:33:39;;;;;;;41.27;23.23;;;7.60;99.90;;;;;;5083217;28;20296;-76
2021/04/18 06:36:06;;;;;;;41.10;23.27;;;7.70;99.90;;;;;;5093312;28;20202;-79
2021/04/18 06:38:33;;;;;;;36.87;22.33;;;7.90;99.90;;;;;;5085327;28;20211;-76
2021/04/18 06:40:59;;;;;;;43.60;22.43;;;7.90;99.90;;;;;;5094956;28;20276;-79
2021/04/18 06:43:26;;;;;;;35.77;21.33;;;8.00;99.90;;;;;;5094446;28;20297;-76
2021/04/18 06:45:53;;;;;;;45.93;21.53;;;8.10;99.90;;;;;;5094892;28;20211;-77
2021/04/18 06:48:22;;;;;;;46.87;21.13;;;8.20;99.90;;;;;;5094286;28;20198;-78
2021/04/18 06:50:49;;;;;;;35.63;20.70;;;8.10;99.90;;;;;;5093544;28;20668;-79
2021/04/18 06:53:16;;;;;;;39.67;21.07;;;8.00;99.90;;;;;;5092655;28;20207;-80
2021/04/18 06:55:43;;;;;;;32.93;19.40;;;8.20;99.90;;;;;;5092947;28;20217;-78
2021/04/18 06:58:11;;;;;;;35.50;19.80;;;8.10;99.90;;;;;;5093361;28;20199;-77
2021/04/18 07:00:38;;;;;;;33.73;18.90;;;7.80;99.90;;;;;;5093400;28;20266;-77
2021/04/18 07:03:12;;;;;;;35.70;18.50;;;7.90;99.90;;;;;;5093006;28;20650;-78
2021/04/18 07:05:44;;;;;;;38.73;17.57;;;7.90;99.90;;;;;;5091509;28;21233;-78
2021/04/18 07:08:22;;;;;;;37.27;18.63;;;8.00;99.90;;;;;;5087008;28;20219;-76
2021/04/18 07:10:48;;;;;;;37.37;18.53;;;8.10;99.90;;;;;;5092213;28;20192;-77
2021/04/18 07:13:17;;;;;;;34.13;17.67;;;8.00;99.90;;;;;;5087199;28;20275;-80
2021/04/18 07:15:45;;;;;;;38.70;17.87;;;8.00;99.90;;;;;;5094171;28;20246;-76
2021/04/18 07:18:14;;;;;;;37.80;18.17;;;8.10;99.90;;;;;;5093681;28;20742;-77
2021/04/18 07:20:55;;;;;;;31.50;16.60;;;8.00;99.90;;;;;;5085658;28;20224;-77
2021/04/18 07:23:28;;;;;;;32.63;17.00;;;8.10;99.90;;;;;;5093347;28;20196;-79
2021/04/18 07:25:56;;;;;;;33.37;16.80;;;8.10;99.90;;;;;;5093754;28;20219;-80
2021/04/18 07:28:24;;;;;;;28.13;14.27;;;8.10;99.90;;;;;;5091592;28;20251;-78
2021/04/18 07:30:52;;;;;;;29.67;15.53;;;8.00;99.90;;;;;;5092329;28;20197;-79
2021/04/18 07:33:18;;;;;;;36.87;17.60;;;8.00;99.90;;;;;;5087254;28;20332;-78
2021/04/18 07:35:45;;;;;;;30.57;16.83;;;8.30;99.90;;;;;;5090046;28;20220;-77
2021/04/18 07:38:24;;;;;;;37.53;17.50;;;8.50;99.90;;;;;;5092655;28;20625;-79
2021/04/18 07:40:52;;;;;;;39.30;19.63;;;8.50;99.90;;;;;;5092259;28;20211;-77
2021/04/18 07:43:19;;;;;;;30.20;16.83;;;8.60;99.90;;;;;;5092608;28;20193;-78
2021/04/18 07:45:46;;;;;;;32.93;17.03;;;8.70;99.90;;;;;;5092298;28;20296;-77
2021/04/18 07:48:14;;;;;;;38.10;17.77;;;8.70;99.90;;;;;;5092955;28;20215;-79
2021/04/18 07:50:43;;;;;;;28.37;15.20;;;8.90;99.90;;;;;;5083714;28;20263;-77
2021/04/18 07:53:09;;;;;;;26.63;12.30;;;8.90;99.90;;;;;;5092339;28;20730;-78
2021/04/18 07:55:37;;;;;;;26.17;12.30;;;9.00;99.90;;;;;;5091262;28;20216;-79
2021/04/18 07:58:04;;;;;;;23.93;10.77;;;9.10;99.90;;;;;;5079636;28;20279;-77
2021/04/18 08:00:32;;;;;;;22.63;11.30;;;9.20;99.90;;;;;;5092737;28;20244;-77
2021/04/18 08:02:59;;;;;;;20.77;11.07;;;9.10;99.90;;;;;;5079797;28;20697;-79
2021/04/18 08:05:29;;;;;;;22.67;11.30;;;9.10;99.90;;;;;;5092984;28;20208;-78
2021/04/18 08:08:00;;;;;;;24.37;11.10;;;9.10;99.90;;;;;;5075514;28;20278;-79
2021/04/18 08:10:28;;;;;;;21.73;11.57;;;9.10;99.90;;;;;;5075399;28;20208;-77
2021/04/18 08:13:12;;;;;;;22.60;12.07;;;9.20;99.90;;;;;;5089717;28;20213;-76
2021/04/18 08:15:41;;;;;;;28.73;12.53;;;9.30;99.90;;;;;;5092838;28;20224;-77
2021/04/18 08:18:11;;;;;;;16.17;9.87;;;9.40;99.90;;;;;;5091858;28;20243;-79
2021/04/18 08:20:39;;;;;;;15.47;8.80;;;9.50;99.90;;;;;;5092251;28;20241;-78
2021/04/18 08:23:09;;;;;;;13.90;7.30;;;9.50;99.90;;;;;;5092204;28;20275;-77
2021/04/18 08:25:38;;;;;;;18.17;8.30;;;9.60;99.90;;;;;;5092940;28;20872;-76
2021/04/18 08:28:11;;;;;;;13.07;7.50;;;9.70;99.90;;;;;;5092474;28;20204;-79
2021/04/18 08:31:04;;;;;;;17.57;8.17;;;10.20;99.90;;;;;;5093091;28;20231;-80
2021/04/18 08:33:44;;;;;;;17.43;7.33;;;12.30;99.90;;;;;;5078328;28;20276;-76
2021/04/18 08:36:13;;;;;;;12.10;6.30;;;14.30;99.90;;;;;;5092769;28;20217;-78
2021/04/18 08:38:40;;;;;;;11.00;7.30;;;15.30;99.90;;;;;;5092568;28;20326;-80
2021/04/18 08:41:10;;;;;;;13.83;7.23;;;16.00;99.90;;;;;;5087547;28;20195;-78
2021/04/18 08:43:37;;;;;;;14.00;7.43;;;16.90;99.90;;;;;;5071786;28;20289;-79
2021/04/18 08:46:03;;;;;;;10.90;7.47;;;17.60;99.90;;;;;;5081374;28;20213;-76
2021/04/18 08:48:30;;;;;;;17.70;7.73;;;18.90;99.90;;;;;;5079070;28;20191;-79
2021/04/18 08:50:58;;;;;;;13.23;8.03;;;19.20;99.90;;;;;;5072543;28;20179;-77
2021/04/18 08:53:24;;;;;;;14.70;8.23;;;18.70;99.90;;;;;;5084769;28;20231;-76
2021/04/18 08:55:56;;;;;;;17.63;8.20;;;19.20;99.90;;;;;;5083538;28;20734;-78
2021/04/18 08:58:32;;;;;;;14.57;8.27;;;19.70;99.90;;;;;;5092205;28;20214;-78
2021/04/18 09:01:07;;;;;;;15.90;8.40;;;19.20;99.90;;;;;;5092396;28;20195;-76
2021/04/18 09:03:34;;;;;;;15.10;8.67;;;19.40;99.90;;;;;;5083725;28;20205;-77
2021/04/18 09:06:17;;;;;;;18.53;9.83;;;20.00;99.90;;;;;;5082882;28;20211;-76
2021/04/18 09:08:51;;;;;;;17.23;9.60;;;19.40;99.90;;;;;;5090391;28;20210;-79
2021/04/18 09:11:17;;;;;;;15.40;8.90;;;19.20;99.90;;;;;;5088411;28;20191;-78
2021/04/18 09:13:58;;;;;;;14.10;9.23;;;19.10;99.90;;;;;;5092365;28;20230;-75
2021/04/18 09:16:27;;;;;;;16.43;8.73;;;20.30;99.90;;;;;;5075280;28;20203;-76
2021/04/18 09:19:14;;;;;;;15.73;8.93;;;19.90;99.90;;;;;;5088259;28;20256;-76
2021/04/18 09:21:40;;;;;;;15.53;8.87;;;20.70;99.90;;;;;;5081939;28;20290;-76
2021/04/18 09:24:07;;;;;;;13.50;7.03;;;19.30;99.90;;;;;;5078929;28;20369;-79
2021/04/18 09:26:34;;;;;;;15.47;8.77;;;18.60;99.90;;;;;;5088597;28;20229;-77
2021/04/18 09:29:11;;;;;;;14.53;8.27;;;19.60;99.90;;;;;;5083321;28;20278;-76
2021/04/18 09:31:54;;;;;;;16.93;8.50;;;19.90;99.90;;;;;;5081596;28;20202;-76
2021/04/18 09:34:21;;;;;;;17.43;9.00;;;19.30;99.90;;;;;;5086871;28;20306;-76
2021/04/18 09:36:50;;;;;;;18.50;8.40;;;19.00;99.90;;;;;;5089844;28;20203;-77
2021/04/18 09:39:17;;;;;;;16.00;8.80;;;19.00;99.90;;;;;;5077562;28;20194;-77
2021/04/18 09:41:44;;;;;;;16.63;8.47;;;19.30;99.90;;;;;;5091887;28;20237;-78
2021/04/18 09:44:26;;;;;;;18.57;9.20;;;19.40;99.90;;;;;;5087660;28;20334;-78
2021/04/18 09:46:53;;;;;;;14.77;8.20;;;20.90;99.90;;;;;;5074195;28;20660;-79
2021/04/18 09:49:20;;;;;;;12.37;8.30;;;21.50;99.90;;;;;;5086018;28;20222;-79
2021/04/18 09:51:54;;;;;;;13.37;8.37;;;20.90;99.90;;;;;;5072002;28;20218;-80
2021/04/18 09:54:32;;;;;;;11.27;6.80;;;20.40;99.90;;;;;;5088322;28;20286;-77
2021/04/18 09:57:29;;;;;;;17.43;7.43;;;20.70;99.90;;;;;;5085467;28;20187;-78
2021/04/18 10:00:11;;;;;;;11.57;7.00;;;21.70;99.90;;;;;;5090653;28;20724;-79
2021/04/18 10:02:39;;;;;;;14.37;7.20;;;22.80;99.90;;;;;;5094198;28;20202;-76
2021/04/18 10:05:12;;;;;;;18.60;7.93;;;22.60;99.90;;;;;;5094782;28;20232;-78
2021/04/18 10:07:38;;;;;;;10.40;6.90;;;23.00;99.90;;;;;;5093429;28;20753;-77
2021/04/18 10:10:06;;;;;;;11.60;7.20;;;22.10;99.90;;;;;;5094775;28;20280;-77
2021/04/18 10:12:49;;;;;;;13.03;7.37;;;22.20;99.90;;;;;;5095390;28;20534;-76
2021/04/18 10:15:18;;;;;;;12.80;7.20;;;22.00;99.90;;;;;;5093591;28;20229;-76
2021/04/18 10:17:46;;;;;;;11.83;7.20;;;21.10;99.90;;;;;;5095212;28;20264;-76
2021/04/18 10:20:22;;;;;;;11.50;6.67;;;21.10;99.90;;;;;;5094757;28;20287;-76
2021/04/18 10:23:06;;;;;;;12.07;6.80;;;21.50;99.90;;;;;;5094888;28;20194;-76
2021/04/18 10:25:33;;;;;;;9.83;6.00;;;21.20;99.90;;;;;;5093087;28;20191;-78
2021/04/18 10:27:59;;;;;;;11.13;6.00;;;22.10;99.90;;;;;;5094509;28;20278;-76
2021/04/18 10:30:26;;;;;;;10.13;6.47;;;22.50;99.80;;;;;;5094170;28;20618;-76
2021/04/18 10:32:54;;;;;;;12.90;6.03;;;22.60;99.70;;;;;;5092625;28;20244;-78
2021/04/18 10:35:20;;;;;;;8.60;5.13;;;22.40;98.90;;;;;;5093662;28;20665;-76
2021/04/18 10:37:47;;;;;;;16.47;6.13;;;22.60;98.40;;;;;;5093766;28;20202;-76
2021/04/18 10:40:15;;;;;;;8.67;5.70;;;21.90;98.30;;;;;;5094336;28;20616;-76
2021/04/18 10:42:43;;;;;;;8.87;5.97;;;21.60;98.30;;;;;;5091623;28;20199;-76
2021/04/18 10:45:11;;;;;;;11.17;5.97;;;21.00;98.60;;;;;;5093423;28;20670;-76
2021/04/18 10:47:38;;;;;;;9.70;5.77;;;21.50;98.50;;;;;;5093153;28;20203;-78
2021/04/18 10:50:06;;;;;;;8.80;5.60;;;21.40;99.60;;;;;;5093748;28;20259;-77
2021/04/18 10:52:33;;;;;;;9.50;5.60;;;21.60;98.40;;;;;;5093373;28;20612;-78
2021/04/18 10:55:00;;;;;;;10.93;6.43;;;20.50;99.90;;;;;;5091681;28;20217;-79
2021/04/18 10:57:27;;;;;;;10.63;6.03;;;22.10;99.90;;;;;;5093485;28;20286;-78
2021/04/18 10:59:53;;;;;;;8.13;5.07;;;21.60;98.50;;;;;;5094291;28;20194;-78
2021/04/18 11:02:20;;;;;;;7.47;5.40;;;22.10;98.10;;;;;;5092959;28;20211;-77
2021/04/18 11:04:46;;;;;;;9.83;5.80;;;21.90;97.80;;;;;;5092913;28;20281;-75
2021/04/18 11:07:13;;;;;;;10.73;5.87;;;21.60;97.70;;;;;;5094249;28;20197;-75
2021/04/18 11:09:39;;;;;;;14.43;6.80;;;21.90;98.20;;;;;;5093610;28;20328;-75
2021/04/18 11:12:17;;;;;;;10.20;5.97;;;21.30;98.30;;;;;;5094263;28;20282;-75
2021/04/18 11:14:44;;;;;;;10.07;5.70;;;20.60;99.30;;;;;;5094376;28;20202;-76
2021/04/18 11:17:10;;;;;;;11.47;6.20;;;20.90;98.40;;;;;;5094469;28;20206;-75
2021/04/18 11:19:37;;;;;;;11.50;6.57;;;21.40;97.80;;;;;;5093686;28;20215;-75
2021/04/18 11:22:03;;;;;;;10.30;6.20;;;22.20;98.00;;;;;;5089870;28;20289;-75
2021/04/18 11:24:31;;;;;;;13.17;6.60;;;22.00;97.90;;;;;;5093835;28;20226;-76
2021/04/18 11:26:57;;;;;;;11.00;5.97;;;20.80;98.20;;;;;;5094112;28;20199;-74
2021/04/18 11:29:24;;;;;;;11.40;6.43;;;21.80;98.30;;;;;;5094241;28;20221;-75
2021/04/18 11:31:50;;;;;;;11.40;6.43;;;21.20;99.20;;;;;;5094512;28;20191;-75
2021/04/18 11:34:17;;;;;;;12.57;6.70;;;21.30;99.50;;;;;;5093141;28;20198;-74
2021/04/18 11:36:44;;;;;;;12.33;6.30;;;21.10;99.40;;;;;;5093662;28;20278;-74
2021/04/18 11:39:11;;;;;;;12.73;7.37;;;21.00;99.70;;;;;;5090233;28;20187;-76
2021/04/18 11:41:38;;;;;;;12.93;7.53;;;21.40;99.60;;;;;;5087405;28;20214;-77
2021/04/18 11:44:05;;;;;;;13.50;7.30;;;21.30;99.20;;;;;;5093797;28;20197;-75
2021/04/18 11:46:33;;;;;;;12.63;7.10;;;22.40;98.80;;;;;;5093402;28;20202;-74
2021/04/18 11:49:00;;;;;;;12.17;7.67;;;22.60;98.10;;;;;;5077576;28;20199;-74
2021/04/18 11:51:27;;;;;;;13.67;7.83;;;22.00;99.50;;;;;;5071125;28;20295;-73
2021/04/18 11:53:53;;;;;;;12.33;8.13;;;22.40;99.30;;;;;;5089252;28;20245;-74
2021/04/18 11:56:20;;;;;;;13.70;8.03;;;21.00;99.80;;;;;;5082244;28;20406;-74
2021/04/18 11:58:47;;;;;;;11.90;7.83;;;20.00;99.90;;;;;;5092802;28;20199;-74
2021/04/18 12:01:13;;;;;;;13.23;8.07;;;19.60;99.90;;;;;;5091996;28;20202;-75
2021/04/18 12:03:40;;;;;;;14.17;8.33;;;20.00;99.90;;;;;;5085691;28;20665;-75
2021/04/18 12:06:06;;;;;;;14.53;8.33;;;19.50;99.90;;;;;;5077762;28;20230;-74
2021/04/18 12:08:34;;;;;;;16.00;8.40;;;19.40;99.90;;;;;;5087765;28;20613;-76
2021/04/18 12:11:01;;;;;;;13.43;8.60;;;20.10;99.90;;;;;;5082272;28;20217;-75
2021/04/18 12:13:28;;;;;;;12.17;7.67;;;20.30;99.90;;;;;;5092678;28;20752;-74
2021/04/18 12:15:55;;;;;;;11.40;8.67;;;19.40;99.90;;;;;;5092084;28;20759;-75
2021/04/18 12:18:21;;;;;;;14.43;8.17;;;18.40;99.90;;;;;;5088364;28;20920;-74
2021/04/18 12:20:48;;;;;;;15.33;7.77;;;18.80;99.90;;;;;;5091435;28;20195;-75
2021/04/18 12:23:14;;;;;;;13.87;8.67;;;19.50;99.90;;;;;;5088207;28;20669;-75
2021/04/18 12:25:40;;;;;;;13.47;8.77;;;20.20;99.90;;;;;;5080097;28;20279;-74
2021/04/18 12:28:08;;;;;;;14.03;8.40;;;20.40;99.90;;;;;;5092524;28;20286;-77
2021/04/18 12:30:35;;;;;;;15.43;9.17;;;20.60;99.90;;;;;;5092067;28;20684;-73
2021/04/18 12:33:02;;;;;;;20.73;8.40;;;20.80;99.90;;;;;;5092266;28;20230;-75
2021/04/18 12:35:28;;;;;;;17.40;9.80;;;21.10;99.90;;;;;;5077765;28;20702;-76
2021/04/18 12:37:55;;;;;;;15.17;8.43;;;21.00;99.90;;;;;;5092523;28;20671;-74
2021/04/18 12:40:21;;;;;;;16.17;8.37;;;19.40;99.90;;;;;;5090858;28;20623;-74
2021/04/18 12:42:47;;;;;;;15.03;8.33;;;19.20;99.90;;;;;;5077320;28;20642;-75